createdAt,value
2019-02-26T00:01:28.761Z,10.40
2019-02-26T00:03:59.110Z,13.03
2019-02-26T00:06:30.192Z,13.00
2019-02-26T00:09:01.928Z,12.53
2019-02-26T00:11:31.394Z,11.83
2019-02-26T00:14:01.830Z,10.63
2019-02-26T00:16:35.222Z,10.80
2019-02-26T00:19:03.150Z,11.20
2019-02-26T00:21:33.370Z,12.53
2019-02-26T00:24:02.756Z,12.30
2019-02-26T00:26:34.021Z,9.27
2019-02-26T00:29:03.952Z,9.60
2019-02-26T00:31:34.173Z,12.80
2019-02-26T00:34:03.604Z,10.57
2019-02-26T00:36:33.648Z,10.37
2019-02-26T00:39:07.259Z,10.43
2019-02-26T00:41:36.699Z,10.17
2019-02-26T00:44:06.528Z,11.43
2019-02-26T00:46:37.113Z,12.93
2019-02-26T00:49:07.598Z,9.10
2019-02-26T00:51:38.991Z,8.33
2019-02-26T00:54:08.045Z,10.43
2019-02-26T00:56:38.600Z,9.27
2019-02-26T00:59:08.488Z,9.50
2019-02-26T01:01:37.799Z,11.97
2019-02-26T01:04:07.159Z,8.57
2019-02-26T01:06:36.568Z,9.17
2019-02-26T01:09:11.249Z,9.60
2019-02-26T01:11:40.692Z,9.93
2019-02-26T01:14:10.027Z,10.53
2019-02-26T01:16:39.947Z,13.37
2019-02-26T01:19:10.839Z,10.40
2019-02-26T01:21:41.492Z,9.70
2019-02-26T01:24:11.050Z,9.77
2019-02-26T01:26:42.836Z,8.83
2019-02-26T01:29:16.152Z,9.57
2019-02-26T01:31:43.731Z,13.40
2019-02-26T01:34:14.055Z,11.27
2019-02-26T01:36:44.980Z,11.03
2019-02-26T01:39:16.258Z,9.20
2019-02-26T01:41:48.462Z,9.97
2019-02-26T01:44:18.846Z,9.33
2019-02-26T01:46:48.731Z,8.57
2019-02-26T01:49:19.210Z,9.53
2019-02-26T01:51:51.855Z,9.03
2019-02-26T01:54:22.041Z,10.23
2019-02-26T01:56:53.427Z,14.53
2019-02-26T01:59:23.489Z,12.50
2019-02-26T02:01:54.151Z,10.03
2019-02-26T02:04:25.074Z,10.40
2019-02-26T02:06:57.105Z,11.47
2019-02-26T02:09:27.083Z,12.87
2019-02-26T02:11:58.264Z,14.13
2019-02-26T02:14:28.716Z,9.63
2019-02-26T02:16:58.812Z,10.87
2019-02-26T02:19:30.083Z,10.13
2019-02-26T02:22:00.587Z,9.73
2019-02-26T02:24:30.605Z,13.17
2019-02-26T02:27:00.468Z,10.37
2019-02-26T02:29:30.647Z,8.70
2019-02-26T02:32:02.810Z,8.10
2019-02-26T02:34:35.927Z,9.97
2019-02-26T02:37:04.157Z,8.73
2019-02-26T02:39:34.111Z,10.90
2019-02-26T02:42:03.747Z,10.73
2019-02-26T02:44:33.947Z,10.60
2019-02-26T02:47:06.078Z,11.47
2019-02-26T02:49:37.416Z,9.83
2019-02-26T02:52:09.619Z,8.80
2019-02-26T02:54:41.094Z,10.77
2019-02-26T02:57:10.632Z,10.10
2019-02-26T02:59:42.228Z,13.37
2019-02-26T03:02:15.057Z,11.10
2019-02-26T03:04:44.648Z,9.27
2019-02-26T03:07:15.232Z,8.40
2019-02-26T03:09:45.829Z,11.93
2019-02-26T03:12:15.709Z,10.00
2019-02-26T03:14:45.296Z,9.30
2019-02-26T03:17:17.545Z,10.07
2019-02-26T03:19:46.586Z,11.17
2019-02-26T03:22:18.851Z,12.80
2019-02-26T03:24:48.365Z,8.67
2019-02-26T03:27:18.860Z,13.07
2019-02-26T03:29:49.912Z,9.77
2019-02-26T03:32:19.891Z,8.57
2019-02-26T03:34:49.752Z,10.63
2019-02-26T03:37:19.413Z,10.37
2019-02-26T03:39:49.432Z,10.23
2019-02-26T03:42:21.124Z,9.77
2019-02-26T03:44:50.754Z,8.53
2019-02-26T03:47:20.815Z,11.43
2019-02-26T03:49:51.138Z,13.23
2019-02-26T03:52:21.351Z,11.57
2019-02-26T03:54:51.462Z,9.57
2019-02-26T03:57:22.716Z,7.57
2019-02-26T03:59:53.182Z,10.40
2019-02-26T04:02:23.481Z,11.13
2019-02-26T04:04:56.557Z,10.03
2019-02-26T04:07:27.847Z,16.10
2019-02-26T04:10:00.514Z,12.50
2019-02-26T04:12:36.055Z,9.97
2019-02-26T04:15:02.093Z,10.13
2019-02-26T04:17:33.671Z,11.57
2019-02-26T04:20:05.759Z,10.37
2019-02-26T04:22:39.180Z,11.43
2019-02-26T04:25:14.720Z,11.33
2019-02-26T04:28:17.645Z,13.93
2019-02-26T04:31:34.368Z,11.30
2019-02-26T04:34:42.567Z,12.90
2019-02-26T04:37:45.149Z,9.27
2019-02-26T04:40:57.749Z,13.83
2019-02-26T04:43:54.209Z,12.23
2019-02-26T04:46:36.945Z,10.63
2019-02-26T04:49:07.330Z,11.00
2019-02-26T04:51:41.523Z,11.33
2019-02-26T04:54:07.998Z,14.60
2019-02-26T04:56:40.126Z,12.37
2019-02-26T04:59:09.808Z,9.30
2019-02-26T05:01:39.723Z,14.83
2019-02-26T05:04:09.187Z,10.83
2019-02-26T05:06:38.624Z,9.03
2019-02-26T05:09:09.978Z,13.60
2019-02-26T05:11:40.777Z,11.13
2019-02-26T05:14:11.719Z,11.23
2019-02-26T05:16:41.437Z,9.57
2019-02-26T05:19:13.587Z,8.50
2019-02-26T05:21:42.108Z,10.23
2019-02-26T05:24:14.556Z,10.67
2019-02-26T05:26:43.318Z,12.03
2019-02-26T05:29:13.591Z,10.47
2019-02-26T05:31:43.347Z,11.77
2019-02-26T05:34:15.056Z,12.67
2019-02-26T05:36:46.163Z,10.77
2019-02-26T05:39:20.399Z,13.93
2019-02-26T05:41:46.767Z,15.00
2019-02-26T05:44:16.630Z,12.10
2019-02-26T05:46:47.588Z,13.03
2019-02-26T05:49:19.466Z,12.20
2019-02-26T05:51:48.868Z,10.33
2019-02-26T05:54:21.632Z,14.53
2019-02-26T05:56:50.000Z,11.60
2019-02-26T05:59:21.771Z,14.33
2019-02-26T06:01:54.752Z,14.83
2019-02-26T06:04:22.740Z,15.40
2019-02-26T06:06:55.512Z,12.90
2019-02-26T06:09:25.571Z,15.20
2019-02-26T06:11:54.497Z,17.70
2019-02-26T06:14:25.454Z,14.57
2019-02-26T06:16:55.906Z,10.63
2019-02-26T06:19:54.574Z,12.63
2019-02-26T06:22:26.562Z,15.43
2019-02-26T06:24:59.560Z,14.27
2019-02-26T06:27:27.454Z,12.03
2019-02-26T06:29:58.192Z,16.13
2019-02-26T06:32:32.227Z,13.47
2019-02-26T06:34:59.819Z,11.33
2019-02-26T06:37:31.321Z,14.77
2019-02-26T06:40:03.299Z,12.73
2019-02-26T06:42:33.745Z,19.17
2019-02-26T06:45:06.474Z,15.47
2019-02-26T06:47:35.373Z,13.27
2019-02-26T06:50:07.884Z,14.40
2019-02-26T06:52:38.186Z,17.00
2019-02-26T06:55:09.523Z,10.47
2019-02-26T06:57:41.434Z,10.47
2019-02-26T07:00:12.948Z,11.63
2019-02-26T07:02:45.373Z,15.97
2019-02-26T07:05:15.003Z,13.17
2019-02-26T07:07:45.071Z,16.40
2019-02-26T07:10:18.521Z,14.97
2019-02-26T07:12:50.597Z,17.33
2019-02-26T07:15:20.809Z,15.17
2019-02-26T07:17:50.846Z,15.20
2019-02-26T07:20:20.854Z,16.47
2019-02-26T07:22:51.648Z,14.53
2019-02-26T07:25:21.474Z,14.40
2019-02-26T07:27:53.475Z,15.13
2019-02-26T07:30:23.412Z,14.70
2019-02-26T07:32:53.670Z,16.30
2019-02-26T07:35:23.626Z,17.93
2019-02-26T07:37:54.621Z,15.77
2019-02-26T07:40:25.289Z,14.10
2019-02-26T07:42:55.121Z,15.03
2019-02-26T07:45:27.079Z,13.17
2019-02-26T07:47:58.463Z,12.67
2019-02-26T07:50:31.405Z,14.67
2019-02-26T07:53:00.170Z,18.87
2019-02-26T07:55:32.710Z,14.60
2019-02-26T07:58:03.460Z,15.23
2019-02-26T08:00:37.008Z,14.50
2019-02-26T08:03:05.074Z,12.13
2019-02-26T08:05:35.313Z,12.23
2019-02-26T08:08:05.701Z,10.13
2019-02-26T08:10:39.409Z,12.67
2019-02-26T08:13:10.993Z,9.30
2019-02-26T08:15:40.974Z,9.10
2019-02-26T08:18:11.045Z,7.47
2019-02-26T08:20:41.194Z,7.13
2019-02-26T08:23:11.023Z,9.83
2019-02-26T08:25:41.050Z,8.87
2019-02-26T08:28:13.123Z,11.67
2019-02-26T08:30:44.516Z,6.80
2019-02-26T08:33:13.792Z,9.97
2019-02-26T08:35:43.722Z,13.33
2019-02-26T08:38:13.440Z,8.10
2019-02-26T08:40:43.262Z,7.40
2019-02-26T08:43:13.337Z,8.07
2019-02-26T08:45:43.119Z,6.67
2019-02-26T08:48:13.256Z,9.47
2019-02-26T08:50:45.871Z,7.77
2019-02-26T08:53:15.680Z,10.03
2019-02-26T08:55:45.233Z,6.70
2019-02-26T08:58:14.847Z,10.03
2019-02-26T09:00:44.487Z,9.93
2019-02-26T09:03:15.659Z,9.27
2019-02-26T09:05:45.317Z,10.80
2019-02-26T09:08:15.863Z,7.33
2019-02-26T09:10:46.926Z,10.07
2019-02-26T09:13:18.705Z,10.80
2019-02-26T09:15:48.239Z,7.70
2019-02-26T09:18:20.258Z,19.10
2019-02-26T09:20:48.763Z,9.17
2019-02-26T09:23:20.874Z,7.77
2019-02-26T09:25:54.067Z,7.60
2019-02-26T09:28:22.305Z,8.60
2019-02-26T09:30:53.676Z,10.33
2019-02-26T09:33:24.999Z,8.33
2019-02-26T09:35:54.465Z,12.00
2019-02-26T09:38:25.540Z,10.47
2019-02-26T09:40:56.989Z,9.87
2019-02-26T09:43:26.158Z,8.98
2019-02-26T09:45:55.468Z,12.13
2019-02-26T09:48:24.942Z,11.38
2019-02-26T09:50:54.401Z,12.53
2019-02-26T09:53:23.779Z,10.00
2019-02-26T09:55:53.080Z,9.58
2019-02-26T09:58:23.532Z,9.83
2019-02-26T10:00:54.046Z,8.30
2019-02-26T10:03:23.620Z,7.15
2019-02-26T10:05:55.105Z,10.03
2019-02-26T10:08:25.363Z,6.78
2019-02-26T10:10:57.647Z,8.88
2019-02-26T10:13:27.819Z,12.90
2019-02-26T10:15:59.254Z,7.42
2019-02-26T10:18:30.346Z,6.75
2019-02-26T10:20:59.432Z,8.93
2019-02-26T10:23:32.770Z,9.20
2019-02-26T10:26:01.051Z,6.78
2019-02-26T10:28:35.208Z,7.17
2019-02-26T10:31:06.424Z,7.65
2019-02-26T10:33:35.935Z,7.00
2019-02-26T10:36:05.378Z,8.90
2019-02-26T10:38:36.526Z,7.67
2019-02-26T10:41:07.264Z,9.53
2019-02-26T10:43:36.685Z,7.40
2019-02-26T10:46:06.384Z,7.15
2019-02-26T10:48:36.253Z,8.73
2019-02-26T10:51:07.273Z,6.28
2019-02-26T10:53:36.985Z,6.85
2019-02-26T10:56:06.794Z,7.83
2019-02-26T10:58:36.717Z,8.88
2019-02-26T11:01:06.407Z,7.97
2019-02-26T11:03:40.752Z,7.33
2019-02-26T11:06:09.657Z,9.07
2019-02-26T11:08:38.400Z,7.53
2019-02-26T11:11:09.837Z,10.83
2019-02-26T11:13:42.248Z,9.77
2019-02-26T11:16:10.555Z,9.03
2019-02-26T11:18:42.526Z,11.63
2019-02-26T11:21:11.656Z,12.60
2019-02-26T11:23:41.984Z,11.07
2019-02-26T11:26:13.148Z,8.77
2019-02-26T11:28:45.425Z,9.27
2019-02-26T11:31:16.630Z,9.33
2019-02-26T11:33:48.080Z,8.93
2019-02-26T11:36:17.267Z,9.93
2019-02-26T11:38:47.163Z,9.63
2019-02-26T11:41:16.762Z,9.80
2019-02-26T11:43:46.579Z,8.70
2019-02-26T11:46:16.161Z,10.63
2019-02-26T11:48:47.503Z,12.27
2019-02-26T11:51:19.821Z,10.00
2019-02-26T11:53:48.581Z,8.93
2019-02-26T11:56:21.281Z,12.63
2019-02-26T11:58:49.533Z,14.90
2019-02-26T12:01:19.214Z,8.60
2019-02-26T12:06:51.315Z,10.10
2019-02-26T12:09:32.975Z,7.73
2019-02-26T12:12:03.320Z,9.13
2019-02-26T12:14:34.685Z,7.33
2019-02-26T12:17:03.859Z,10.37
2019-02-26T12:19:34.438Z,12.07
2019-02-26T12:22:06.082Z,12.27
2019-02-26T12:24:36.221Z,12.67
2019-02-26T12:27:07.353Z,9.93
2019-02-26T12:29:37.306Z,12.13
2019-02-26T12:32:06.700Z,16.53
2019-02-26T12:34:38.558Z,12.80
2019-02-26T12:37:11.139Z,13.60
2019-02-26T12:39:38.246Z,10.55
2019-02-26T12:42:10.485Z,11.80
2019-02-26T12:44:42.371Z,10.90
2019-02-26T12:47:11.525Z,12.70
2019-02-26T12:49:42.212Z,9.27
2019-02-26T12:52:11.806Z,9.97
2019-02-26T12:54:42.854Z,9.67
2019-02-26T12:57:12.285Z,12.97
2019-02-26T12:59:41.599Z,8.53
2019-02-26T13:02:13.952Z,10.37
2019-02-26T13:04:44.519Z,12.23
2019-02-26T13:07:13.112Z,11.67
2019-02-26T13:09:50.385Z,8.40
2019-02-26T13:12:18.416Z,9.50
2019-02-26T13:14:47.435Z,8.77
2019-02-26T13:17:17.463Z,12.23
2019-02-26T13:19:58.793Z,10.83
2019-02-26T13:22:24.811Z,10.33
2019-02-26T13:24:54.214Z,12.07
2019-02-26T13:27:23.675Z,5.57
2019-02-26T13:29:56.910Z,7.70
2019-02-26T13:32:26.084Z,6.23
2019-02-26T13:35:07.246Z,9.37
2019-02-26T13:37:40.544Z,10.97
2019-02-26T13:40:10.721Z,7.23
2019-02-26T13:42:40.262Z,8.07
2019-02-26T13:45:11.524Z,9.60
2019-02-26T13:47:40.896Z,10.87
2019-02-26T13:50:12.723Z,11.27
2019-02-26T13:52:42.179Z,7.93
2019-02-26T13:55:11.721Z,10.97
2019-02-26T13:57:41.159Z,12.27
2019-02-26T14:00:11.876Z,13.77
2019-02-26T14:02:41.267Z,13.37
2019-02-26T14:05:10.768Z,13.07
2019-02-26T14:07:40.267Z,11.53
2019-02-26T14:10:11.346Z,12.63
2019-02-26T14:12:40.726Z,14.93
2019-02-26T14:15:11.929Z,20.97
2019-02-26T14:17:41.468Z,12.87
2019-02-26T14:20:11.191Z,15.93
2019-02-26T14:22:40.560Z,17.23
2019-02-26T14:25:10.044Z,14.93
2019-02-26T14:27:39.603Z,14.80
2019-02-26T14:30:10.712Z,13.07
2019-02-26T14:32:40.194Z,16.53
2019-02-26T14:35:10.565Z,11.60
2019-02-26T14:37:39.955Z,12.70
2019-02-26T14:40:10.809Z,14.83
2019-02-26T14:42:40.176Z,11.53
2019-02-26T14:45:12.138Z,12.03
2019-02-26T14:47:41.478Z,12.33
2019-02-26T14:50:13.469Z,15.90
2019-02-26T14:52:43.319Z,18.63
2019-02-26T14:55:13.318Z,14.80
2019-02-26T14:57:42.755Z,10.40
2019-02-26T15:00:15.780Z,11.27
2019-02-26T15:02:45.168Z,12.40
2019-02-26T15:05:14.527Z,9.73
2019-02-26T15:07:43.920Z,10.80
2019-02-26T15:10:13.531Z,10.10
2019-02-26T15:12:42.840Z,12.07
2019-02-26T15:15:12.951Z,11.10
2019-02-26T15:17:42.293Z,8.97
2019-02-26T15:20:29.185Z,10.30
2019-02-26T15:22:58.597Z,12.47
2019-02-26T15:25:28.023Z,11.60
2019-02-26T15:28:04.657Z,9.53
2019-02-26T15:30:28.607Z,10.10
2019-02-26T15:32:58.097Z,9.37
2019-02-26T15:35:27.685Z,10.37
2019-02-26T15:37:57.044Z,8.77
2019-02-26T15:40:26.468Z,8.47
2019-02-26T15:42:56.433Z,8.80
2019-02-26T15:45:25.910Z,11.60
2019-02-26T15:47:55.297Z,8.13
2019-02-26T15:50:24.632Z,11.73
2019-02-26T15:52:54.015Z,8.20
2019-02-26T15:55:23.352Z,9.13
2019-02-26T15:57:52.848Z,8.10
2019-02-26T16:00:22.887Z,9.30
2019-02-26T16:02:52.535Z,13.70
2019-02-26T16:05:23.084Z,8.13
2019-02-26T16:07:52.606Z,9.20
2019-02-26T16:10:22.829Z,9.60
2019-02-26T16:12:52.308Z,11.27
2019-02-26T16:15:21.725Z,9.93
2019-02-26T16:17:51.117Z,9.60
2019-02-26T16:20:20.649Z,10.83
2019-02-26T16:22:50.047Z,8.37
2019-02-26T16:25:19.415Z,11.47
2019-02-26T16:27:48.751Z,11.20
2019-02-26T16:30:19.731Z,11.43
2019-02-26T16:32:49.154Z,11.00
2019-02-26T16:35:18.725Z,8.50
2019-02-26T16:37:48.044Z,11.33
2019-02-26T16:40:17.527Z,13.20
2019-02-26T16:42:47.200Z,10.87
2019-02-26T16:45:18.412Z,12.03
2019-02-26T16:47:48.741Z,10.57
2019-02-26T16:50:20.417Z,11.93
2019-02-26T16:52:49.744Z,10.47
2019-02-26T16:55:19.323Z,10.30
2019-02-26T16:57:48.953Z,11.30
2019-02-26T17:00:20.579Z,12.53
2019-02-26T17:02:50.093Z,12.27
2019-02-26T17:05:19.499Z,14.00
2019-02-26T17:07:48.891Z,13.83
2019-02-26T17:10:18.918Z,15.97
2019-02-26T17:12:53.157Z,9.57
2019-02-26T17:15:26.888Z,11.80
2019-02-26T17:17:55.271Z,10.83
2019-02-26T17:20:26.276Z,11.53
2019-02-26T17:22:55.846Z,12.90
2019-02-26T17:25:28.394Z,11.70
2019-02-26T17:27:56.378Z,14.67
2019-02-26T17:30:25.793Z,12.33
2019-02-26T17:32:55.171Z,12.63
2019-02-26T17:35:49.477Z,12.47
2019-02-26T17:38:18.904Z,10.60
2019-02-26T17:40:51.851Z,9.37
2019-02-26T17:43:22.839Z,15.63
2019-02-26T17:45:52.422Z,11.33
2019-02-26T17:48:21.880Z,15.23
2019-02-26T17:50:51.221Z,10.83
2019-02-26T17:53:20.628Z,8.87
2019-02-26T17:55:50.021Z,8.90
2019-02-26T17:58:22.528Z,13.57
2019-02-26T18:00:54.718Z,8.63
2019-02-26T18:03:25.682Z,7.87
2019-02-26T18:05:55.187Z,8.13
2019-02-26T18:08:24.575Z,11.97
2019-02-26T18:10:53.966Z,8.67
2019-02-26T18:13:23.385Z,16.50
2019-02-26T18:15:56.127Z,11.47
2019-02-26T18:18:23.964Z,8.63
2019-02-26T18:20:53.300Z,10.20
2019-02-26T18:23:22.659Z,8.50
2019-02-26T18:25:51.993Z,12.63
2019-02-26T18:28:21.391Z,11.23
2019-02-26T18:30:54.436Z,14.83
2019-02-26T18:33:35.586Z,14.00
2019-02-26T18:36:03.416Z,13.83
2019-02-26T18:38:32.784Z,15.77
2019-02-26T18:41:02.188Z,13.20
2019-02-26T18:43:31.676Z,14.90
2019-02-26T18:46:01.311Z,14.90
2019-02-26T18:48:30.850Z,16.10
2019-02-26T18:51:02.462Z,15.17
2019-02-26T18:53:31.447Z,16.97
2019-02-26T18:56:01.774Z,17.70
2019-02-26T18:58:31.933Z,12.47
2019-02-26T19:01:01.479Z,13.67
2019-02-26T19:03:30.865Z,11.47
2019-02-26T19:06:00.294Z,11.67
2019-02-26T19:08:29.672Z,12.00
2019-02-26T19:10:59.073Z,10.33
2019-02-26T19:13:28.434Z,12.83
2019-02-26T19:15:57.779Z,14.53
2019-02-26T19:18:27.107Z,14.80
2019-02-26T19:20:56.469Z,14.67
2019-02-26T19:24:35.650Z,18.40
2019-02-26T19:27:04.453Z,14.20
2019-02-26T19:29:33.959Z,12.13
2019-02-26T19:32:03.400Z,18.57
2019-02-26T19:35:01.972Z,23.50
2019-02-26T19:37:31.472Z,20.43
2019-02-26T19:40:15.603Z,19.80
2019-02-26T19:42:44.965Z,18.77
2019-02-26T19:45:14.018Z,17.27
2019-02-26T19:47:43.443Z,15.83
2019-02-26T19:50:14.711Z,22.97
2019-02-26T19:52:44.226Z,17.40
2019-02-26T19:55:16.416Z,19.47
2019-02-26T19:57:45.825Z,15.77
2019-02-26T20:00:15.201Z,16.70
2019-02-26T20:02:48.968Z,15.63
2019-02-26T20:05:27.212Z,22.93
2019-02-26T20:07:56.609Z,14.33
2019-02-26T20:10:25.954Z,18.17
2019-02-26T20:13:01.334Z,18.97
2019-02-26T20:19:31.718Z,17.70
2019-02-26T20:22:00.056Z,23.13
2019-02-26T20:24:29.496Z,26.03
2019-02-26T20:31:03.516Z,19.03
2019-02-26T20:37:59.998Z,15.17
2019-02-26T20:40:29.360Z,15.97
2019-02-26T20:43:01.359Z,13.47
2019-02-26T20:45:30.069Z,12.70
2019-02-26T20:48:03.635Z,15.60
2019-02-26T20:50:30.520Z,14.73
2019-02-26T20:52:59.918Z,19.03
2019-02-26T20:56:28.594Z,16.53
2019-02-26T21:00:13.973Z,15.80
2019-02-26T21:03:03.965Z,16.80
2019-02-26T21:11:03.870Z,17.60
2019-02-26T21:14:33.840Z,15.10
2019-02-26T21:17:09.977Z,16.37
2019-02-26T21:19:46.529Z,16.17
2019-02-26T21:22:15.888Z,18.17
2019-02-26T21:24:45.348Z,16.53
2019-02-26T21:27:14.813Z,14.23
2019-02-26T21:32:20.096Z,13.77
2019-02-26T21:34:49.442Z,17.37
2019-02-26T21:37:18.776Z,13.90
2019-02-26T21:39:48.070Z,11.83
2019-02-26T21:42:17.388Z,13.47
2019-02-26T21:44:46.818Z,15.97
2019-02-26T21:47:16.163Z,14.17
2019-02-26T21:49:46.521Z,14.53
2019-02-26T21:52:16.553Z,13.27
2019-02-26T21:54:45.899Z,14.97
2019-02-26T21:57:15.204Z,14.57
2019-02-26T21:59:49.978Z,14.67
2019-02-26T22:02:18.658Z,14.07
2019-02-26T22:05:12.924Z,15.83
2019-02-26T22:07:51.978Z,24.00
2019-02-26T22:10:33.957Z,13.60
2019-02-26T22:13:18.849Z,15.87
2019-02-26T22:15:48.173Z,17.67
2019-02-26T22:18:17.508Z,15.47
2019-02-26T22:20:46.882Z,17.10
2019-02-26T22:23:16.199Z,18.60
2019-02-26T22:25:45.502Z,15.83
2019-02-26T22:28:14.844Z,15.97
2019-02-26T22:30:44.182Z,13.80
2019-02-26T22:33:13.487Z,13.20
2019-02-26T22:35:43.706Z,14.10
2019-02-26T22:38:15.449Z,16.60
2019-02-26T22:40:44.069Z,13.80
2019-02-26T22:43:13.860Z,19.20
2019-02-26T22:45:43.626Z,16.90
2019-02-26T22:48:13.710Z,17.60
2019-02-26T22:50:43.552Z,15.70
2019-02-26T22:53:12.868Z,14.77
2019-02-26T22:55:42.201Z,16.03
2019-02-26T22:58:11.530Z,19.17
2019-02-26T23:01:06.054Z,14.77
2019-02-26T23:03:35.415Z,17.53
2019-02-26T23:06:04.949Z,17.43
2019-02-26T23:08:34.319Z,14.13
2019-02-26T23:11:03.712Z,13.00
2019-02-26T23:13:33.413Z,13.53
2019-02-26T23:16:02.821Z,15.07
2019-02-26T23:18:32.443Z,14.33
2019-02-26T23:21:01.955Z,15.03
2019-02-26T23:23:31.340Z,14.60
2019-02-26T23:26:00.667Z,12.50
2019-02-26T23:28:30.059Z,13.77
2019-02-26T23:30:59.866Z,11.27
2019-02-26T23:33:29.743Z,15.87
2019-02-26T23:35:59.075Z,15.23
2019-02-26T23:38:28.370Z,17.27
2019-02-26T23:40:58.198Z,13.30
2019-02-26T23:43:28.848Z,13.17
2019-02-26T23:45:58.280Z,13.40
2019-02-26T23:48:27.632Z,13.73
2019-02-26T23:50:57.056Z,12.87
2019-02-26T23:53:26.400Z,12.47
2019-02-26T23:55:55.720Z,15.67
2019-02-26T23:58:25.100Z,12.90
